Terminal Aerodrome Forecast
Issued by NWS

Home | Current Version | Previous Version | Text Only | Print | Product List | Glossary On
Versions: 1 2 3 4 5 6 7 8 9 10 11 12 13 14 15 16 17 18
000
FTUS43 KIND 030524
TAFLAF
TAF
KLAF 030524Z 0306/0406 25003KT P6SM SCT150
     FM030900 00000KT 5SM BR SCT150
     FM031200 00000KT P6SM SCT150
     FM031500 23005KT P6SM SCT030 BKN150
     FM031800 25008KT P6SM BKN040 PROB30 0318/0323 5SM TSRA BKN040CB
     FM032300 00000KT P6SM SCT100
      AMD LTD TO CLD VIS AND WIND TIL 031300=

USA.gov is the U.S. government's official web portal to all federal, state and local government web resources and services.